Time;durP1;ratioP1;P1;durP2;ratioP2;P2;SDS_P1;SDS_P2;PMS_P1;PMS_P2;Temp;Humidity;BMP_temperature;BMP_pressure;BME280_temperature;BME280_humidity;BME280_pressure;Samples;Min_cycle;Max_cycle;Signal;HPM_P1;HPM_P2
2022/07/23 00:00:07;;;;;;;5.47;3.05;;;22.20;79.90;;;;;;1855566;77;21038;-69
2022/07/23 00:02:37;;;;;;;6.45;2.50;;;22.20;80.00;;;;;;1855512;77;21108;-69
2022/07/23 00:05:07;;;;;;;2.22;2.00;;;22.20;80.10;;;;;;1855528;77;21014;-68
2022/07/23 00:07:36;;;;;;;5.33;2.33;;;22.20;80.10;;;;;;1855380;77;21038;-68
2022/07/23 00:10:06;;;;;;;3.95;2.33;;;22.20;80.00;;;;;;1855353;77;21103;-68
2022/07/23 00:12:36;;;;;;;5.67;2.60;;;22.20;80.00;;;;;;1855388;77;21107;-68
2022/07/23 00:15:06;;;;;;;4.78;2.22;;;22.20;80.00;;;;;;1855510;77;21041;-68
2022/07/23 00:17:35;;;;;;;4.05;2.37;;;22.20;80.00;;;;;;1855583;77;21124;-68
2022/07/23 00:20:05;;;;;;;4.87;2.80;;;22.20;80.10;;;;;;1855654;77;21066;-68
2022/07/23 00:22:34;;;;;;;3.47;2.17;;;22.20;80.10;;;;;;1855463;77;21491;-68
2022/07/23 00:25:04;;;;;;;7.92;2.52;;;22.20;80.10;;;;;;1855536;77;21021;-68
2022/07/23 00:27:33;;;;;;;4.78;2.33;;;22.20;80.10;;;;;;1855443;77;21021;-68
2022/07/23 00:30:02;;;;;;;2.55;2.12;;;22.20;80.20;;;;;;1855352;77;21045;-68
2022/07/23 00:32:31;;;;;;;4.42;3.02;;;22.20;80.20;;;;;;1855331;77;21033;-68
2022/07/23 00:35:01;;;;;;;5.08;3.08;;;22.20;80.40;;;;;;1855377;77;21013;-68
2022/07/23 00:37:30;;;;;;;4.83;2.37;;;22.20;80.80;;;;;;1855354;77;21041;-68
2022/07/23 00:40:00;;;;;;;8.18;2.83;;;22.20;81.00;;;;;;1855519;77;21101;-68
2022/07/23 00:42:29;;;;;;;6.53;3.10;;;22.20;81.00;;;;;;1855422;77;21064;-68
2022/07/23 00:44:58;;;;;;;6.40;2.92;;;22.20;81.10;;;;;;1855361;77;21151;-68
2022/07/23 00:47:28;;;;;;;4.87;2.80;;;22.20;81.50;;;;;;1855507;77;21018;-68
2022/07/23 00:49:57;;;;;;;4.85;2.80;;;22.20;81.40;;;;;;1855331;77;21108;-68
2022/07/23 00:52:26;;;;;;;6.83;2.85;;;22.20;81.80;;;;;;1855368;77;21053;-68
2022/07/23 00:54:57;;;;;;;4.20;2.87;;;22.20;82.10;;;;;;1855444;77;21120;-68
2022/07/23 00:57:26;;;;;;;2.67;2.42;;;22.10;82.30;;;;;;1855496;77;21021;-68
2022/07/23 00:59:56;;;;;;;9.73;3.58;;;22.10;82.50;;;;;;1855354;77;21100;-68
2022/07/23 01:02:25;;;;;;;5.25;2.62;;;22.20;82.80;;;;;;1855414;77;21464;-68
2022/07/23 01:04:55;;;;;;;3.42;2.65;;;22.20;83.00;;;;;;1855385;77;21049;-68
2022/07/23 01:07:25;;;;;;;4.62;3.05;;;22.20;83.10;;;;;;1855547;77;21037;-68
2022/07/23 01:09:55;;;;;;;5.55;2.83;;;22.10;83.20;;;;;;1855529;77;21096;-68
2022/07/23 01:12:24;;;;;;;3.65;3.22;;;22.10;83.30;;;;;;1855461;77;21045;-68
2022/07/23 01:14:58;;;;;;;5.90;3.12;;;22.10;83.40;;;;;;1857081;77;21127;-68
2022/07/23 01:17:28;;;;;;;5.78;3.37;;;22.10;83.50;;;;;;1857678;77;21069;-68
2022/07/23 01:19:58;;;;;;;4.83;3.10;;;22.00;83.80;;;;;;1857449;77;21039;-68
2022/07/23 01:22:29;;;;;;;7.40;3.12;;;22.00;83.80;;;;;;1857444;77;21097;-68
2022/07/23 01:24:59;;;;;;;5.47;2.72;;;22.00;83.90;;;;;;1857572;77;21120;-68
2022/07/23 01:27:30;;;;;;;6.75;2.77;;;22.00;84.00;;;;;;1857432;75;21182;-68
2022/07/23 01:30:02;;;;;;;5.30;2.80;;;22.00;84.00;;;;;;1857393;75;21084;-68
2022/07/23 01:32:31;;;;;;;4.97;2.75;;;22.00;83.90;;;;;;1857397;77;21135;-68
2022/07/23 01:35:00;;;;;;;4.85;3.00;;;22.00;84.00;;;;;;1857571;77;21480;-68
2022/07/23 01:37:30;;;;;;;4.03;2.65;;;22.00;83.90;;;;;;1857427;77;21084;-68
2022/07/23 01:39:59;;;;;;;3.50;3.20;;;22.00;83.90;;;;;;1857575;77;21045;-68
2022/07/23 01:42:29;;;;;;;5.78;3.05;;;21.90;83.80;;;;;;1857422;77;21040;-68
2022/07/23 01:44:58;;;;;;;4.83;3.40;;;21.90;83.70;;;;;;1849466;75;21037;-68
2022/07/23 01:47:28;;;;;;;5.97;3.05;;;21.90;83.70;;;;;;1857546;77;21135;-68
2022/07/23 01:49:58;;;;;;;5.58;3.65;;;21.90;83.70;;;;;;1857496;77;21117;-68
2022/07/23 01:52:29;;;;;;;4.00;3.10;;;21.90;83.70;;;;;;1856445;77;21045;-68
2022/07/23 01:54:58;;;;;;;4.03;3.27;;;21.90;83.50;;;;;;1857425;77;21030;-68
2022/07/23 01:57:28;;;;;;;5.25;3.55;;;21.80;83.50;;;;;;1857533;77;21111;-68
2022/07/23 01:59:57;;;;;;;5.28;3.02;;;21.90;83.40;;;;;;1857541;77;21500;-68
2022/07/23 02:02:27;;;;;;;4.17;2.95;;;21.90;83.10;;;;;;1857465;77;21037;-68
2022/07/23 02:04:56;;;;;;;4.33;2.98;;;21.80;82.90;;;;;;1857531;77;21108;-68
2022/07/23 02:07:27;;;;;;;4.05;2.95;;;21.80;83.00;;;;;;1857395;76;21046;-68
2022/07/23 02:09:57;;;;;;;4.85;2.80;;;21.80;83.00;;;;;;1857409;77;21037;-68
2022/07/23 02:12:27;;;;;;;4.85;3.33;;;21.80;82.90;;;;;;1857499;77;21107;-68
2022/07/23 02:14:56;;;;;;;3.83;3.33;;;21.70;82.80;;;;;;1859109;77;21073;-68
2022/07/23 02:17:27;;;;;;;4.42;2.65;;;21.70;82.80;;;;;;1860828;77;21044;-68
2022/07/23 02:19:56;;;;;;;4.95;3.27;;;21.70;82.90;;;;;;1860791;77;21103;-68
2022/07/23 02:22:25;;;;;;;6.05;3.33;;;21.70;82.90;;;;;;1860625;77;21115;-68
2022/07/23 02:24:55;;;;;;;4.03;3.60;;;21.70;82.90;;;;;;1860851;77;21119;-68
2022/07/23 02:27:24;;;;;;;6.08;3.22;;;21.70;82.90;;;;;;1860746;77;21100;-68
2022/07/23 02:29:54;;;;;;;5.53;3.00;;;21.70;82.80;;;;;;1860858;77;21103;-68
2022/07/23 02:32:24;;;;;;;4.67;3.22;;;21.70;82.80;;;;;;1860690;77;21135;-68
2022/07/23 02:34:53;;;;;;;6.17;3.12;;;21.60;82.70;;;;;;1860702;77;21103;-68
2022/07/23 02:37:23;;;;;;;5.45;3.37;;;21.70;82.70;;;;;;1860895;77;21041;-68
2022/07/23 02:39:53;;;;;;;5.10;3.27;;;21.60;83.20;;;;;;1860768;77;21037;-68
2022/07/23 02:42:23;;;;;;;6.45;3.30;;;21.60;82.80;;;;;;1860777;77;21053;-68
2022/07/23 02:44:53;;;;;;;5.72;4.03;;;21.60;82.80;;;;;;1860787;77;21091;-68
2022/07/23 02:47:23;;;;;;;7.58;4.20;;;21.60;83.00;;;;;;1860690;77;21041;-68
2022/07/23 02:49:53;;;;;;;4.45;3.55;;;21.60;83.00;;;;;;1860661;77;21013;-68
2022/07/23 02:52:22;;;;;;;4.83;3.55;;;21.70;82.60;;;;;;1860770;77;21025;-68
2022/07/23 02:54:52;;;;;;;4.65;3.37;;;21.80;82.40;;;;;;1860765;77;21053;-68
2022/07/23 02:57:21;;;;;;;4.97;3.58;;;21.80;82.40;;;;;;1860705;77;21076;-68
2022/07/23 02:59:51;;;;;;;4.95;3.77;;;21.80;82.30;;;;;;1860679;77;21073;-68
2022/07/23 03:02:20;;;;;;;7.08;4.60;;;21.90;82.20;;;;;;1860660;77;21045;-68
2022/07/23 03:04:50;;;;;;;4.85;3.47;;;21.90;82.30;;;;;;1860774;77;21068;-68
2022/07/23 03:07:20;;;;;;;4.40;2.92;;;21.90;82.30;;;;;;1860719;77;21169;-68
2022/07/23 03:09:50;;;;;;;4.37;3.72;;;21.90;82.30;;;;;;1860726;77;21072;-68
2022/07/23 03:12:20;;;;;;;9.03;4.87;;;22.00;82.40;;;;;;1860585;77;21092;-68
2022/07/23 03:14:49;;;;;;;8.93;4.08;;;22.00;82.20;;;;;;1859652;77;21065;-67
2022/07/23 03:17:18;;;;;;;7.17;3.90;;;22.10;82.10;;;;;;1855298;77;21049;-67
2022/07/23 03:19:49;;;;;;;8.00;4.03;;;22.10;82.10;;;;;;1855398;77;21026;-67
2022/07/23 03:22:18;;;;;;;4.55;3.72;;;22.20;82.10;;;;;;1855473;77;21041;-67
2022/07/23 03:24:56;;;;;;;4.58;3.70;;;22.10;82.00;;;;;;1855396;77;21495;-66
2022/07/23 03:27:29;;;;;;;5.22;3.72;;;22.20;82.00;;;;;;1855204;76;21086;-66
2022/07/23 03:30:00;;;;;;;5.83;3.42;;;22.20;81.80;;;;;;1855370;77;21002;-66
2022/07/23 03:32:29;;;;;;;8.88;4.45;;;22.20;81.90;;;;;;1855310;77;21095;-66
2022/07/23 03:34:59;;;;;;;6.95;3.72;;;22.20;81.90;;;;;;1855340;77;21041;-66
2022/07/23 03:37:28;;;;;;;7.05;3.90;;;22.30;82.00;;;;;;1855263;77;21132;-66
2022/07/23 03:39:59;;;;;;;7.50;4.50;;;22.30;81.90;;;;;;1855424;77;21120;-66
2022/07/23 03:42:29;;;;;;;9.65;4.28;;;22.40;81.80;;;;;;1855290;77;21092;-66
2022/07/23 03:44:58;;;;;;;4.83;3.83;;;22.50;81.60;;;;;;1855298;77;21124;-66
2022/07/23 03:47:27;;;;;;;6.65;3.98;;;22.60;81.30;;;;;;1855269;77;21041;-66
2022/07/23 03:49:57;;;;;;;4.60;3.58;;;22.60;81.10;;;;;;1855425;77;21123;-66
2022/07/23 03:52:26;;;;;;;5.20;3.58;;;22.60;81.00;;;;;;1855229;77;21100;-66
2022/07/23 03:54:56;;;;;;;5.85;3.20;;;22.70;81.10;;;;;;1855247;77;21098;-66
2022/07/23 03:57:26;;;;;;;5.28;3.85;;;22.70;81.00;;;;;;1851922;77;21029;-65
2022/07/23 03:59:55;;;;;;;6.12;3.72;;;22.80;81.00;;;;;;1855392;77;21112;-65
2022/07/23 04:02:24;;;;;;;9.30;3.50;;;22.80;80.80;;;;;;1855204;77;21045;-66
2022/07/23 04:04:54;;;;;;;5.92;3.50;;;22.80;80.90;;;;;;1855281;77;21022;-65
2022/07/23 04:07:23;;;;;;;6.05;3.40;;;22.80;80.80;;;;;;1855322;77;21041;-65
2022/07/23 04:09:53;;;;;;;4.55;3.72;;;22.80;80.70;;;;;;1855394;77;21073;-65
2022/07/23 04:12:22;;;;;;;7.80;3.77;;;22.90;80.80;;;;;;1855245;77;21037;-66
2022/07/23 04:14:51;;;;;;;4.08;3.65;;;22.90;80.70;;;;;;1855357;77;21084;-66
2022/07/23 04:17:21;;;;;;;6.62;3.83;;;23.10;80.50;;;;;;1857356;77;21065;-67
2022/07/23 04:19:50;;;;;;;4.12;3.37;;;23.20;80.30;;;;;;1857435;77;21092;-67
2022/07/23 04:22:21;;;;;;;4.25;3.40;;;23.20;79.70;;;;;;1857266;75;21094;-67
2022/07/23 04:24:50;;;;;;;4.78;3.25;;;23.30;79.60;;;;;;1857238;77;21479;-66
2022/07/23 04:27:20;;;;;;;4.92;3.67;;;23.40;79.20;;;;;;1857284;77;21017;-66
2022/07/23 04:29:50;;;;;;;4.17;3.58;;;23.50;79.00;;;;;;1857273;77;21045;-66
2022/07/23 04:32:19;;;;;;;3.60;3.25;;;23.60;78.50;;;;;;1857312;77;21021;-67
2022/07/23 04:34:50;;;;;;;5.75;3.70;;;23.60;78.00;;;;;;1857364;77;21037;-67
2022/07/23 04:37:20;;;;;;;4.47;3.00;;;23.70;77.70;;;;;;1857554;77;21476;-68
2022/07/23 04:39:49;;;;;;;4.87;3.35;;;23.70;77.50;;;;;;1857196;77;21448;-68
2022/07/23 04:42:18;;;;;;;4.22;3.62;;;23.70;77.10;;;;;;1857212;77;21168;-68
2022/07/23 04:44:48;;;;;;;7.83;3.83;;;23.70;77.00;;;;;;1857304;77;21127;-68
2022/07/23 04:47:17;;;;;;;5.37;2.90;;;23.70;77.00;;;;;;1857196;77;21045;-68
2022/07/23 04:49:47;;;;;;;4.62;3.22;;;23.80;76.90;;;;;;1857327;77;21100;-68
2022/07/23 04:52:17;;;;;;;6.20;5.40;;;23.80;76.70;;;;;;1857143;77;21041;-68
2022/07/23 04:54:47;;;;;;;5.20;3.90;;;23.90;76.70;;;;;;1857291;77;21045;-68
2022/07/23 04:57:16;;;;;;;5.10;3.27;;;24.10;76.50;;;;;;1857266;77;21014;-68
2022/07/23 04:59:45;;;;;;;4.00;3.15;;;24.20;76.30;;;;;;1857425;77;21108;-68
2022/07/23 05:02:16;;;;;;;6.58;3.58;;;24.30;75.90;;;;;;1857196;77;21049;-68
2022/07/23 05:04:46;;;;;;;7.28;3.80;;;24.30;75.60;;;;;;1857257;77;21038;-68
2022/07/23 05:07:15;;;;;;;3.40;3.00;;;24.40;75.70;;;;;;1857367;77;21099;-67
2022/07/23 05:09:45;;;;;;;6.67;2.95;;;24.50;75.20;;;;;;1857265;77;21065;-67
2022/07/23 05:12:14;;;;;;;7.62;3.40;;;24.60;74.90;;;;;;1857253;77;21091;-66
2022/07/23 05:14:44;;;;;;;3.92;3.12;;;24.60;74.40;;;;;;1849377;75;21057;-67
2022/07/23 05:17:14;;;;;;;3.95;2.83;;;24.50;74.20;;;;;;1857163;77;21119;-67
2022/07/23 05:19:44;;;;;;;4.15;2.70;;;24.40;74.40;;;;;;1857507;77;21085;-67
2022/07/23 05:22:13;;;;;;;2.62;2.15;;;24.30;74.10;;;;;;1857301;77;21097;-67
2022/07/23 05:24:43;;;;;;;2.60;2.40;;;24.20;73.20;;;;;;1857275;77;21116;-67
2022/07/23 05:27:13;;;;;;;4.65;2.80;;;24.00;72.80;;;;;;1857340;77;21424;-67
2022/07/23 05:29:44;;;;;;;3.05;2.75;;;23.90;73.10;;;;;;1857349;77;21066;-66
2022/07/23 05:32:13;;;;;;;3.83;2.30;;;23.80;73.60;;;;;;1857248;77;21033;-66
2022/07/23 05:34:44;;;;;;;4.12;2.67;;;23.70;73.40;;;;;;1857168;75;21046;-67
2022/07/23 05:37:13;;;;;;;3.58;2.60;;;23.60;73.60;;;;;;1857416;77;21073;-66
2022/07/23 05:39:42;;;;;;;8.25;3.10;;;23.50;74.10;;;;;;1857368;77;21511;-66
2022/07/23 05:42:11;;;;;;;4.25;2.92;;;23.40;74.80;;;;;;1857237;77;21033;-66
2022/07/23 05:44:41;;;;;;;3.50;2.72;;;23.50;75.60;;;;;;1857171;77;21036;-66
2022/07/23 05:47:10;;;;;;;4.53;3.10;;;23.60;76.10;;;;;;1857167;77;21069;-66
2022/07/23 05:49:40;;;;;;;3.35;2.83;;;23.90;76.00;;;;;;1857271;77;21119;-66
2022/07/23 05:52:28;;;;;;;3.52;2.58;;;24.10;75.50;;;;;;1857208;77;21070;-66
2022/07/23 05:55:01;;;;;;;2.70;2.47;;;24.10;74.80;;;;;;1832797;77;21479;-65
2022/07/23 05:57:31;;;;;;;3.17;2.42;;;24.20;74.50;;;;;;1857390;77;21022;-66
2022/07/23 06:00:00;;;;;;;3.98;2.90;;;24.30;74.40;;;;;;1857515;77;21111;-66
2022/07/23 06:02:30;;;;;;;3.42;2.72;;;24.30;73.80;;;;;;1857318;77;21041;-66
2022/07/23 06:04:59;;;;;;;4.55;2.62;;;24.20;73.30;;;;;;1857383;77;21053;-66
2022/07/23 06:07:30;;;;;;;9.75;3.75;;;24.20;73.00;;;;;;1857124;75;21048;-66
2022/07/23 06:10:00;;;;;;;5.50;2.70;;;24.10;73.00;;;;;;1857334;77;21034;-66
2022/07/23 06:12:29;;;;;;;3.47;2.85;;;24.00;73.00;;;;;;1857265;77;21021;-66
2022/07/23 06:14:58;;;;;;;2.77;2.58;;;23.90;72.90;;;;;;1857489;77;21115;-66
2022/07/23 06:17:28;;;;;;;3.60;2.60;;;23.90;73.10;;;;;;1856325;77;21171;-66
2022/07/23 06:20:19;;;;;;;4.60;3.20;;;24.10;72.80;;;;;;1855183;77;21037;-67
2022/07/23 06:22:50;;;;;;;5.05;2.30;;;24.20;72.40;;;;;;1847120;73;21083;-68
2022/07/23 06:25:20;;;;;;;2.58;2.37;;;24.40;71.50;;;;;;1846664;78;21494;-68
2022/07/23 06:27:50;;;;;;;5.42;2.72;;;24.60;70.00;;;;;;1846777;78;21087;-69
2022/07/23 06:30:19;;;;;;;5.00;2.70;;;24.80;69.80;;;;;;1846642;78;21478;-68
2022/07/23 06:32:49;;;;;;;5.12;2.58;;;24.80;69.70;;;;;;1846766;78;20984;-67
2022/07/23 06:35:18;;;;;;;3.05;2.65;;;24.90;69.70;;;;;;1846797;78;21470;-66
2022/07/23 06:37:48;;;;;;;4.28;2.58;;;25.00;68.50;;;;;;1846792;78;21028;-66
2022/07/23 06:40:17;;;;;;;4.62;2.45;;;25.10;68.40;;;;;;1846900;78;21475;-67
2022/07/23 06:42:46;;;;;;;5.00;2.20;;;25.00;68.10;;;;;;1846915;78;20984;-66
2022/07/23 06:45:17;;;;;;;2.33;2.12;;;24.90;68.00;;;;;;1844925;77;21017;-66
2022/07/23 06:47:46;;;;;;;3.08;2.87;;;24.90;68.30;;;;;;1846811;78;21032;-66
2022/07/23 06:50:15;;;;;;;4.67;2.50;;;25.00;67.70;;;;;;1846846;78;21012;-66
2022/07/23 06:52:44;;;;;;;4.22;2.10;;;25.00;65.60;;;;;;1846816;78;21122;-66
2022/07/23 06:55:13;;;;;;;2.85;2.37;;;25.10;65.80;;;;;;1846730;78;20996;-66
2022/07/23 06:57:41;;;;;;;7.22;3.12;;;25.10;65.40;;;;;;1846807;78;21016;-66
2022/07/23 07:00:11;;;;;;;4.10;3.70;;;25.10;66.60;;;;;;1846862;78;21036;-66
2022/07/23 07:02:40;;;;;;;6.35;4.10;;;25.20;67.50;;;;;;1846733;78;21048;-66
2022/07/23 07:05:09;;;;;;;3.52;2.90;;;25.30;67.40;;;;;;1847019;78;21004;-66
2022/07/23 07:07:38;;;;;;;8.30;3.67;;;25.40;65.90;;;;;;1846807;78;21066;-66
2022/07/23 07:10:08;;;;;;;4.87;3.10;;;25.30;65.80;;;;;;1846833;78;21127;-66
2022/07/23 07:12:38;;;;;;;3.45;3.00;;;25.30;66.50;;;;;;1846856;78;21463;-66
2022/07/23 07:15:08;;;;;;;5.67;3.95;;;25.20;66.90;;;;;;1846416;76;21517;-66
2022/07/23 07:17:37;;;;;;;11.15;4.62;;;25.10;67.70;;;;;;1846802;78;21074;-66
2022/07/23 07:20:06;;;;;;;5.62;2.50;;;25.00;67.90;;;;;;1846750;78;21082;-66
2022/07/23 07:22:35;;;;;;;2.55;2.33;;;24.90;67.30;;;;;;1846695;77;21064;-66
2022/07/23 07:25:05;;;;;;;4.22;3.25;;;24.90;67.50;;;;;;1846805;78;21017;-66
2022/07/23 07:27:34;;;;;;;3.83;2.30;;;24.90;67.30;;;;;;1846632;78;21012;-67
2022/07/23 07:30:05;;;;;;;12.70;5.10;;;24.90;66.70;;;;;;1846751;78;21062;-67
2022/07/23 07:32:34;;;;;;;7.35;3.12;;;24.90;67.30;;;;;;1846744;78;21075;-66
2022/07/23 07:35:04;;;;;;;6.75;3.45;;;24.80;67.20;;;;;;1846695;78;20989;-66
2022/07/23 07:37:33;;;;;;;10.35;3.58;;;24.60;67.60;;;;;;1845795;77;21024;-66
2022/07/23 07:40:03;;;;;;;6.20;3.60;;;24.60;68.30;;;;;;1846830;78;21494;-66
2022/07/23 07:42:32;;;;;;;4.30;2.60;;;24.60;67.50;;;;;;1846765;78;21582;-66
2022/07/23 07:45:01;;;;;;;2.40;2.20;;;24.60;67.70;;;;;;1846762;78;20992;-66
2022/07/23 07:47:29;;;;;;;3.70;2.42;;;24.60;67.90;;;;;;1846779;78;21496;-66
2022/07/23 07:49:59;;;;;;;2.62;2.42;;;24.60;68.20;;;;;;1846807;78;20996;-66
2022/07/23 07:52:28;;;;;;;4.97;2.40;;;24.50;68.50;;;;;;1846811;78;21055;-66
2022/07/23 07:54:56;;;;;;;8.53;3.20;;;24.60;68.80;;;;;;1846731;78;21442;-66
2022/07/23 07:57:25;;;;;;;3.75;2.20;;;24.80;68.50;;;;;;1846835;78;21044;-66
2022/07/23 07:59:54;;;;;;;3.42;2.05;;;24.90;68.40;;;;;;1846846;78;21525;-66
2022/07/23 08:02:23;;;;;;;4.67;2.20;;;24.90;68.00;;;;;;1846803;78;21013;-66
2022/07/23 08:04:52;;;;;;;3.37;1.70;;;25.00;67.10;;;;;;1846837;78;21005;-66
2022/07/23 08:07:21;;;;;;;2.27;1.50;;;24.90;65.20;;;;;;1846751;78;21548;-66
2022/07/23 08:09:50;;;;;;;1.67;1.57;;;24.80;63.20;;;;;;1846746;78;21071;-66
2022/07/23 08:12:19;;;;;;;3.45;1.57;;;24.80;61.90;;;;;;1846675;78;21067;-66
2022/07/23 08:14:48;;;;;;;1.45;1.35;;;24.80;60.90;;;;;;1846801;78;21005;-67
2022/07/23 08:17:17;;;;;;;3.60;1.52;;;24.80;61.40;;;;;;1846770;78;21000;-67
2022/07/23 08:19:46;;;;;;;1.95;1.12;;;24.90;60.70;;;;;;1846743;78;21454;-66
2022/07/23 08:22:15;;;;;;;2.20;1.30;;;25.00;60.50;;;;;;1846707;77;21082;-66
2022/07/23 08:24:44;;;;;;;5.83;2.95;;;25.10;61.30;;;;;;1855693;77;21105;-66
2022/07/23 08:27:13;;;;;;;9.08;2.52;;;25.20;61.00;;;;;;1855675;77;21414;-66
2022/07/23 08:29:42;;;;;;;15.08;3.65;;;25.10;60.00;;;;;;1855614;77;21108;-66
2022/07/23 08:32:11;;;;;;;11.85;6.40;;;25.00;60.40;;;;;;1855593;77;21002;-66
2022/07/23 08:34:40;;;;;;;14.73;6.20;;;25.10;60.90;;;;;;1855705;77;21421;-66
2022/07/23 08:37:09;;;;;;;6.62;2.65;;;25.20;61.20;;;;;;1855707;77;20998;-67
2022/07/23 08:39:38;;;;;;;3.15;1.62;;;25.30;60.30;;;;;;1855736;77;21072;-68
2022/07/23 08:42:08;;;;;;;10.58;4.83;;;25.40;61.10;;;;;;1855677;77;20998;-67
2022/07/23 08:44:38;;;;;;;11.38;4.20;;;25.40;61.20;;;;;;1855844;77;21151;-67
2022/07/23 08:47:07;;;;;;;2.50;1.92;;;25.40;60.50;;;;;;1855745;77;20979;-68
2022/07/23 08:49:36;;;;;;;10.50;4.62;;;25.40;60.00;;;;;;1855741;77;21014;-67
2022/07/23 08:52:05;;;;;;;13.13;5.58;;;25.40;60.30;;;;;;1855626;77;20998;-66
2022/07/23 08:54:36;;;;;;;5.25;2.30;;;25.40;60.50;;;;;;1855781;77;21002;-66
2022/07/23 08:57:05;;;;;;;6.60;2.00;;;25.40;60.80;;;;;;1855747;77;21038;-67
2022/07/23 08:59:34;;;;;;;2.55;1.70;;;25.50;61.10;;;;;;1855768;77;20999;-67
2022/07/23 09:02:03;;;;;;;4.33;1.98;;;25.50;60.40;;;;;;1855698;77;21010;-67
2022/07/23 09:04:32;;;;;;;9.25;3.60;;;25.50;60.50;;;;;;1855650;77;21014;-68
2022/07/23 09:07:03;;;;;;;2.42;1.60;;;25.60;60.50;;;;;;1855583;77;20994;-68
2022/07/23 09:09:33;;;;;;;1.35;1.10;;;25.70;59.90;;;;;;1855756;77;21069;-68
2022/07/23 09:12:07;;;;;;;2.45;1.40;;;25.80;58.80;;;;;;1855698;77;21398;-68
2022/07/23 09:14:46;;;;;;;3.22;1.50;;;25.70;57.90;;;;;;1855858;77;21552;-68
2022/07/23 09:17:17;;;;;;;2.10;1.50;;;25.70;57.40;;;;;;1855728;77;20994;-68
2022/07/23 09:19:46;;;;;;;1.80;1.35;;;25.70;58.30;;;;;;1855839;77;21057;-68
2022/07/23 09:22:26;;;;;;;7.62;1.55;;;25.80;58.40;;;;;;1855627;77;21143;-68
2022/07/23 09:25:09;;;;;;;1.70;1.60;;;25.90;57.90;;;;;;1848335;77;21048;-68
2022/07/23 09:27:50;;;;;;;1.75;1.65;;;25.90;58.20;;;;;;1846933;78;21205;-68
2022/07/23 09:30:19;;;;;;;10.85;4.95;;;25.90;58.50;;;;;;1846045;77;21020;-68
2022/07/23 09:33:08;;;;;;;2.62;1.55;;;25.90;58.30;;;;;;1846904;78;21510;-68
2022/07/23 09:35:51;;;;;;;1.50;1.40;;;25.90;57.10;;;;;;1846481;77;21000;-68
2022/07/23 09:38:22;;;;;;;6.20;2.92;;;26.00;57.00;;;;;;1846834;78;21070;-68
2022/07/23 09:41:12;;;;;;;3.83;1.47;;;26.10;56.90;;;;;;1846832;78;21062;-68
2022/07/23 09:43:41;;;;;;;3.02;1.82;;;26.20;56.80;;;;;;1846869;78;21024;-69
2022/07/23 09:46:21;;;;;;;5.15;2.83;;;26.20;57.00;;;;;;1846710;78;21012;-68
2022/07/23 09:48:51;;;;;;;6.03;3.40;;;26.30;56.60;;;;;;1846838;78;21094;-69
2022/07/23 09:51:38;;;;;;;5.75;2.98;;;26.20;56.50;;;;;;1846807;78;21499;-68
2022/07/23 09:54:09;;;;;;;5.65;3.08;;;26.30;56.50;;;;;;1846794;78;21099;-68
2022/07/23 09:56:38;;;;;;;2.00;1.47;;;26.40;57.10;;;;;;1844885;77;21094;-69
2022/07/23 09:59:14;;;;;;;6.60;2.20;;;26.30;57.30;;;;;;1846850;78;21048;-69
2022/07/23 10:01:38;;;;;;;22.42;11.78;;;26.20;57.60;;;;;;1845540;77;20993;-69
2022/07/23 10:04:08;;;;;;;7.87;4.83;;;26.20;57.80;;;;;;1846833;78;20996;-68
2022/07/23 10:06:58;;;;;;;2.50;1.40;;;26.20;58.30;;;;;;1846984;78;21035;-68
2022/07/23 10:09:31;;;;;;;5.60;1.30;;;26.20;57.40;;;;;;1811973;77;21081;-69
2022/07/23 10:14:47;;;;;;;2.37;1.62;;;26.30;57.80;;;;;;1846120;77;21482;-68
2022/07/23 10:17:17;;;;;;;4.17;2.33;;;26.30;57.80;;;;;;1846854;78;20968;-69
2022/07/23 10:19:46;;;;;;;4.47;1.52;;;26.20;57.60;;;;;;1846924;78;21021;-68
2022/07/23 10:22:17;;;;;;;2.95;1.52;;;26.20;57.00;;;;;;1846853;78;21013;-68
2022/07/23 10:25:10;;;;;;;3.35;1.47;;;26.10;57.40;;;;;;1846786;77;21554;-69
2022/07/23 10:28:00;;;;;;;8.20;2.42;;;26.20;57.10;;;;;;1846883;78;21612;-68
2022/07/23 10:30:41;;;;;;;1.87;1.37;;;26.20;56.70;;;;;;1846878;78;21188;-68
2022/07/23 10:33:20;;;;;;;3.55;1.37;;;26.30;56.30;;;;;;1846690;77;21024;-67
2022/07/23 10:36:03;;;;;;;4.08;1.90;;;26.30;55.00;;;;;;1846558;77;21004;-66
2022/07/23 10:38:35;;;;;;;3.55;2.10;;;26.40;56.10;;;;;;1846994;78;21497;-66
2022/07/23 10:41:05;;;;;;;1.62;1.32;;;26.30;56.20;;;;;;1846679;75;21090;-66
2022/07/23 10:43:34;;;;;;;4.42;1.82;;;26.20;56.50;;;;;;1846656;78;21004;-66
2022/07/23 10:46:26;;;;;;;4.67;1.90;;;26.10;56.70;;;;;;1846614;78;21013;-66
2022/07/23 10:49:30;;;;;;;5.78;3.15;;;26.00;57.40;;;;;;1846664;76;21454;-66
2022/07/23 10:52:27;;;;;;;4.45;1.50;;;25.90;57.40;;;;;;1846063;77;21129;-66
2022/07/23 10:54:58;;;;;;;7.12;2.27;;;25.90;57.60;;;;;;1846825;78;21395;-66
2022/07/23 10:57:28;;;;;;;4.40;2.25;;;26.00;57.30;;;;;;1843355;78;21016;-66
2022/07/23 11:00:12;;;;;;;7.12;3.65;;;26.10;56.30;;;;;;1847012;78;21549;-66
2022/07/23 11:02:43;;;;;;;7.25;2.70;;;26.00;56.90;;;;;;1846931;78;21016;-66
2022/07/23 11:05:18;;;;;;;3.95;1.80;;;26.00;57.40;;;;;;1846878;78;21475;-65
2022/07/23 11:08:11;;;;;;;5.28;2.45;;;25.90;57.70;;;;;;1846925;78;21086;-66
2022/07/23 11:10:47;;;;;;;5.67;2.00;;;25.80;57.20;;;;;;1845979;77;21008;-66
2022/07/23 11:13:34;;;;;;;5.00;2.20;;;25.80;57.20;;;;;;1846635;77;21499;-66
2022/07/23 11:16:05;;;;;;;4.75;2.10;;;25.70;57.20;;;;;;1846939;77;21104;-66
2022/07/23 11:18:52;;;;;;;2.75;1.90;;;25.70;57.00;;;;;;1846997;78;21071;-66
2022/07/23 11:21:30;;;;;;;3.30;2.00;;;25.70;56.90;;;;;;1846893;78;20993;-66
2022/07/23 11:24:02;;;;;;;3.20;1.55;;;25.60;57.00;;;;;;1846850;78;20997;-65
2022/07/23 11:26:43;;;;;;;3.90;1.52;;;25.60;57.20;;;;;;1846914;78;21000;-65
2022/07/23 11:29:31;;;;;;;2.37;1.65;;;25.70;57.10;;;;;;1846913;78;20981;-68
2022/07/23 11:32:02;;;;;;;3.98;1.90;;;25.90;56.50;;;;;;1846914;78;21060;-68
2022/07/23 11:34:40;;;;;;;1.87;1.52;;;26.00;56.10;;;;;;1846815;78;21106;-68
2022/07/23 11:37:12;;;;;;;2.50;1.57;;;26.10;55.90;;;;;;1846897;78;21005;-68
2022/07/23 11:39:41;;;;;;;1.42;1.32;;;26.10;55.60;;;;;;1844349;77;21095;-68
2022/07/23 11:42:10;;;;;;;4.40;1.50;;;26.20;55.60;;;;;;1846793;78;21478;-68
2022/07/23 11:44:39;;;;;;;9.88;2.85;;;26.00;54.80;;;;;;1846873;78;21001;-67
2022/07/23 11:47:11;;;;;;;3.70;2.40;;;26.00;55.00;;;;;;1846786;78;21010;-67
2022/07/23 11:49:42;;;;;;;2.50;1.57;;;26.00;54.60;;;;;;1846882;78;21028;-66
2022/07/23 11:52:15;;;;;;;1.70;1.52;;;25.90;54.70;;;;;;1845232;77;21021;-66
2022/07/23 11:54:53;;;;;;;2.12;1.35;;;25.90;54.30;;;;;;1846845;78;21074;-66
2022/07/23 11:57:26;;;;;;;12.07;5.50;;;25.90;54.70;;;;;;1846844;78;21024;-66
2022/07/23 11:59:57;;;;;;;22.05;4.05;;;25.80;54.80;;;;;;1846905;78;21032;-66
2022/07/23 12:02:26;;;;;;;11.78;4.72;;;25.70;55.70;;;;;;1846771;78;21592;-68
2022/07/23 12:04:55;;;;;;;4.87;2.52;;;25.70;56.00;;;;;;1846856;78;21013;-68
2022/07/23 12:07:35;;;;;;;5.75;2.52;;;25.80;56.30;;;;;;1846826;78;21009;-67
2022/07/23 12:10:13;;;;;;;4.58;4.17;;;25.90;56.80;;;;;;1846731;78;21075;-69
2022/07/23 12:12:45;;;;;;;2.90;1.77;;;25.90;58.10;;;;;;1846747;78;21001;-67
2022/07/23 12:15:16;;;;;;;4.17;2.70;;;26.00;57.90;;;;;;1846824;78;21161;-68
2022/07/23 12:17:47;;;;;;;6.20;2.83;;;26.00;57.70;;;;;;1846832;78;20996;-67
2022/07/23 12:20:19;;;;;;;4.28;2.20;;;26.10;58.10;;;;;;1846808;78;21060;-68
2022/07/23 12:22:50;;;;;;;4.15;2.72;;;26.10;58.20;;;;;;1846882;78;21016;-68
2022/07/23 12:25:22;;;;;;;15.10;3.50;;;26.20;56.90;;;;;;1847633;77;21118;-68
2022/07/23 12:28:08;;;;;;;2.50;1.60;;;26.20;57.20;;;;;;1849770;77;21114;-68
2022/07/23 12:30:45;;;;;;;3.08;2.35;;;26.20;56.80;;;;;;1849771;77;21000;-68
2022/07/23 12:33:18;;;;;;;8.60;4.75;;;26.20;56.80;;;;;;1849793;77;21024;-67
2022/07/23 12:35:47;;;;;;;10.28;5.20;;;26.10;56.80;;;;;;1849299;77;21093;-67
2022/07/23 12:38:18;;;;;;;7.00;3.42;;;26.10;57.20;;;;;;1849686;77;21005;-67
2022/07/23 12:40:53;;;;;;;5.25;3.15;;;26.10;57.00;;;;;;1849796;77;21070;-67
2022/07/23 12:43:33;;;;;;;4.80;3.27;;;26.10;57.40;;;;;;1849518;77;21090;-66
2022/07/23 12:46:05;;;;;;;2.70;1.57;;;26.10;57.00;;;;;;1849809;77;21016;-66
2022/07/23 12:48:36;;;;;;;2.67;1.50;;;26.20;55.90;;;;;;1849665;77;20996;-68
2022/07/23 12:51:10;;;;;;;6.80;3.22;;;26.20;55.10;;;;;;1849745;77;20988;-66
2022/07/23 12:53:53;;;;;;;3.05;2.15;;;26.20;55.10;;;;;;1849002;77;21643;-66
2022/07/23 12:56:20;;;;;;;2.92;1.60;;;26.30;54.60;;;;;;1848468;77;21012;-66
2022/07/23 12:58:57;;;;;;;8.35;4.80;;;26.40;54.20;;;;;;1849700;77;20996;-67
2022/07/23 13:01:30;;;;;;;2.20;1.82;;;26.40;53.90;;;;;;1849781;77;21502;-66
2022/07/23 13:04:08;;;;;;;2.52;1.57;;;26.40;53.60;;;;;;1849817;77;21048;-67
2022/07/23 13:06:42;;;;;;;3.95;1.98;;;26.40;53.60;;;;;;1849814;77;21075;-68
2022/07/23 13:09:14;;;;;;;3.12;1.70;;;26.40;53.10;;;;;;1849905;77;21549;-68